Urb Bonneville Vly, Puerto Rico
Current Conditions -  °F | °C
As of 10:56 PM on Friday 24 Oct 2014 (Local Time) from TJSJ Reporting Station
Clear Clear  
Wind Chill: 83°   Ceiling: Unl
Heat Index: 90°   Visibility: 10mi
Dew Point: 75°   Wind: 0mph
Humidity: 77%   Direction: NA
Pressure: 29.92"   Gusts: NA
Location:  18.2351°N, 66.0374°W
Report Text: TJSJ 250256Z 00000KT 10SM CLR 28/24 A2992 RMK AO2 SLP132 T02830239 51010
Loading
Personal Weather Stations






























Interactive Weather Map
Tropical Storm Tracking
New forecast layout! Learn more

10-Day Weather Forecast

Advertisements
Track Severe Weather on mobile